createdAt,value
2022-10-15T00:01:20.766Z,13.80
2022-10-15T00:03:47.469Z,13.80
2022-10-15T00:06:16.060Z,13.70
2022-10-15T00:08:42.745Z,14.90
2022-10-15T00:11:11.284Z,14.80
2022-10-15T00:13:38.312Z,13.60
2022-10-15T00:16:06.849Z,13.70
2022-10-15T00:18:33.491Z,13.80
2022-10-15T00:21:00.044Z,13.70
2022-10-15T00:23:26.688Z,13.70
2022-10-15T00:26:07.615Z,13.60
2022-10-15T00:28:34.686Z,13.50
2022-10-15T00:33:28.687Z,13.60
2022-10-15T00:35:59.293Z,13.60
2022-10-15T00:38:26.020Z,13.60
2022-10-15T00:40:52.736Z,13.50
2022-10-15T00:43:35.184Z,13.60
2022-10-15T00:46:01.753Z,13.70
2022-10-15T00:48:30.432Z,13.60
2022-10-15T00:50:57.177Z,13.50
2022-10-15T00:53:23.767Z,14.10
2022-10-15T00:55:51.152Z,13.50
2022-10-15T00:58:22.065Z,13.60
2022-10-15T01:00:48.827Z,13.60
2022-10-15T01:03:15.596Z,13.50
2022-10-15T01:05:43.627Z,14.30
2022-10-15T01:08:10.358Z,14.70
2022-10-15T01:10:43.881Z,13.60
2022-10-15T01:13:20.041Z,13.40
2022-10-15T01:15:51.167Z,13.30
2022-10-15T01:18:20.660Z,13.40
2022-10-15T01:21:10.108Z,13.40
2022-10-15T01:23:43.873Z,13.40
2022-10-15T01:26:14.017Z,13.30
2022-10-15T01:28:52.841Z,13.40
2022-10-15T01:31:31.770Z,13.40
2022-10-15T01:34:04.259Z,13.40
2022-10-15T01:36:33.912Z,13.40
2022-10-15T01:39:00.482Z,13.50
2022-10-15T01:41:34.004Z,14.60
2022-10-15T01:44:06.858Z,13.40
2022-10-15T01:46:36.472Z,13.50
2022-10-15T01:49:04.240Z,13.50
2022-10-15T01:51:33.455Z,13.50
2022-10-15T01:54:00.721Z,13.40
2022-10-15T01:56:29.849Z,13.50
2022-10-15T01:58:56.928Z,13.30
2022-10-15T02:01:23.607Z,13.50
2022-10-15T02:03:51.600Z,13.40
2022-10-15T02:06:41.533Z,13.40
2022-10-15T02:09:15.481Z,13.40
2022-10-15T02:12:02.447Z,13.40
2022-10-15T02:14:35.229Z,13.50
2022-10-15T02:17:11.376Z,13.60
2022-10-15T02:19:42.162Z,13.50
2022-10-15T02:22:19.542Z,14.80
2022-10-15T02:25:09.449Z,13.60
2022-10-15T02:27:37.525Z,13.50
2022-10-15T02:30:06.674Z,13.50
2022-10-15T02:32:33.469Z,13.50
2022-10-15T02:35:01.016Z,13.50
2022-10-15T02:37:29.382Z,13.50
2022-10-15T02:39:56.032Z,13.50
2022-10-15T02:42:22.981Z,15.70
2022-10-15T02:44:49.819Z,13.70
2022-10-15T02:47:16.645Z,13.40
2022-10-15T02:49:43.466Z,13.30
2022-10-15T02:52:10.044Z,13.50
2022-10-15T02:54:36.606Z,13.50
2022-10-15T02:57:03.266Z,13.40
2022-10-15T02:59:29.901Z,13.50
2022-10-15T03:01:56.464Z,13.50
2022-10-15T03:04:23.109Z,13.50
2022-10-15T03:06:49.853Z,13.50
2022-10-15T03:09:16.440Z,13.50
2022-10-15T03:11:43.028Z,14.30
2022-10-15T03:14:09.649Z,13.40
2022-10-15T03:16:36.233Z,13.50
2022-10-15T03:19:02.902Z,13.30
2022-10-15T03:21:31.082Z,15.10
2022-10-15T03:23:58.587Z,13.40
2022-10-15T03:26:25.588Z,13.50
2022-10-15T03:28:52.242Z,13.50
2022-10-15T03:31:18.898Z,13.70
2022-10-15T03:33:45.607Z,13.40
2022-10-15T03:36:12.195Z,13.40
2022-10-15T03:38:38.760Z,14.70
2022-10-15T03:41:05.518Z,13.50
2022-10-15T03:43:32.196Z,13.50
2022-10-15T03:46:02.182Z,13.50
2022-10-15T03:48:28.995Z,13.50
2022-10-15T03:50:55.576Z,14.20
2022-10-15T03:53:22.181Z,13.50
2022-10-15T03:55:48.815Z,13.60
2022-10-15T03:58:15.477Z,13.50
2022-10-15T04:00:42.801Z,14.60
2022-10-15T04:03:09.569Z,13.60
2022-10-15T04:05:36.239Z,13.60
2022-10-15T04:08:03.443Z,13.50
2022-10-15T04:10:30.032Z,14.90
2022-10-15T04:12:56.595Z,13.60
2022-10-15T04:15:23.227Z,13.60
2022-10-15T04:20:24.979Z,13.70
2022-10-15T04:22:51.539Z,13.70
2022-10-15T04:25:18.249Z,13.70
2022-10-15T04:27:44.876Z,13.70
2022-10-15T04:30:11.905Z,13.70
2022-10-15T04:32:38.471Z,13.80
2022-10-15T04:35:05.341Z,13.60
2022-10-15T04:37:34.838Z,13.80
2022-10-15T04:40:01.822Z,13.80
2022-10-15T04:42:28.877Z,13.80
2022-10-15T04:44:55.499Z,13.90
2022-10-15T04:47:22.397Z,14.10
2022-10-15T04:49:49.121Z,13.80
2022-10-15T04:52:15.698Z,13.90
2022-10-15T04:54:42.330Z,14.00
2022-10-15T04:57:08.901Z,14.00
2022-10-15T04:59:35.506Z,14.60
2022-10-15T05:02:02.150Z,14.10
2022-10-15T05:04:28.906Z,15.20
2022-10-15T05:06:55.466Z,14.30
2022-10-15T05:09:22.031Z,15.00
2022-10-15T05:11:48.771Z,15.40
2022-10-15T05:14:15.419Z,15.60
2022-10-15T05:16:42.077Z,15.20
2022-10-15T05:19:09.965Z,14.40
2022-10-15T05:21:36.644Z,14.40
2022-10-15T05:24:04.063Z,14.40
2022-10-15T05:26:32.121Z,14.50
2022-10-15T05:48:20.485Z,14.60
2022-10-15T05:53:28.704Z,14.60
2022-10-15T05:55:55.544Z,16.00
2022-10-15T05:58:22.165Z,15.10
2022-10-15T06:00:55.666Z,14.80
2022-10-15T06:03:22.421Z,14.70
2022-10-15T06:05:49.046Z,14.70
2022-10-15T06:08:15.700Z,14.70
2022-10-15T06:10:42.593Z,14.70
2022-10-15T06:13:11.310Z,14.80
2022-10-15T06:15:41.956Z,14.80
2022-10-15T06:18:09.680Z,14.80
2022-10-15T06:20:37.192Z,15.80
2022-10-15T06:23:05.337Z,14.80
2022-10-15T06:25:32.041Z,14.90
2022-10-15T06:28:02.691Z,14.70
2022-10-15T06:30:29.922Z,14.80
2022-10-15T06:32:56.787Z,14.80
2022-10-15T06:35:24.116Z,14.80
2022-10-15T06:37:50.912Z,14.70
2022-10-15T06:40:17.736Z,14.80
2022-10-15T06:42:44.458Z,15.40
2022-10-15T06:45:11.769Z,16.10
2022-10-15T06:47:40.540Z,14.80
2022-10-15T06:50:07.631Z,15.20
2022-10-15T06:52:34.245Z,14.90
2022-10-15T06:55:00.830Z,14.80
2022-10-15T06:57:27.916Z,14.90
2022-10-15T06:59:55.441Z,14.80
2022-10-15T07:02:22.586Z,14.80
2022-10-15T07:04:49.355Z,15.40
2022-10-15T07:07:15.989Z,14.90
2022-10-15T07:09:42.609Z,15.10
2022-10-15T07:12:09.348Z,15.10
2022-10-15T07:14:40.005Z,15.10
2022-10-15T07:17:09.102Z,15.20
2022-10-15T07:19:35.773Z,15.10
2022-10-15T07:22:02.329Z,15.20
2022-10-15T07:24:28.915Z,15.30
2022-10-15T07:26:55.497Z,16.00
2022-10-15T07:29:22.068Z,15.20
2022-10-15T07:31:48.746Z,15.20
2022-10-15T07:34:15.339Z,16.90
2022-10-15T07:36:41.925Z,15.30
2022-10-15T07:39:09.387Z,15.30
2022-10-15T07:41:36.304Z,15.30
2022-10-15T07:44:03.061Z,15.80
2022-10-15T07:46:29.651Z,16.20
2022-10-15T07:48:56.281Z,15.30
2022-10-15T07:51:22.857Z,15.30
2022-10-15T07:53:49.433Z,15.60
2022-10-15T07:56:16.475Z,16.10
2022-10-15T07:58:43.377Z,15.40
2022-10-15T08:01:10.877Z,16.70
2022-10-15T08:03:37.919Z,16.40
2022-10-15T08:06:05.484Z,15.40
2022-10-15T08:08:32.131Z,15.40
2022-10-15T08:10:58.722Z,15.40
2022-10-15T08:13:25.627Z,16.60
2022-10-15T08:15:55.088Z,15.50
2022-10-15T08:18:24.454Z,17.00
2022-10-15T08:20:51.050Z,15.50
2022-10-15T08:23:17.624Z,16.50
2022-10-15T08:25:44.396Z,15.60
2022-10-15T08:28:11.067Z,16.90
2022-10-15T08:30:38.167Z,15.70
2022-10-15T08:33:04.768Z,16.20
2022-10-15T08:35:35.319Z,17.00
2022-10-15T08:38:02.223Z,15.60
2022-10-15T08:40:29.671Z,16.20
2022-10-15T08:42:57.096Z,15.30
2022-10-15T08:45:23.660Z,15.40
2022-10-15T08:47:58.685Z,15.20
2022-10-15T08:50:36.281Z,15.20
2022-10-15T08:53:02.960Z,15.30
2022-10-15T08:55:32.697Z,15.40
2022-10-15T08:58:08.064Z,15.40
2022-10-15T09:00:38.447Z,15.40
2022-10-15T09:03:05.029Z,15.60
2022-10-15T09:05:39.062Z,16.30
2022-10-15T09:08:08.761Z,15.80
2022-10-15T09:10:43.977Z,16.00
2022-10-15T09:13:13.871Z,16.10
2022-10-15T09:15:57.219Z,16.50
2022-10-15T09:18:25.019Z,16.50
2022-10-15T09:20:53.005Z,17.20
2022-10-15T09:23:21.240Z,16.90
2022-10-15T09:26:09.949Z,17.10
2022-10-15T09:28:39.546Z,17.30
2022-10-15T09:31:08.920Z,17.30
2022-10-15T09:33:38.688Z,17.60
2022-10-15T09:36:05.408Z,17.60
2022-10-15T09:38:41.903Z,17.80
2022-10-15T09:41:16.663Z,17.60
2022-10-15T09:43:48.419Z,17.60
2022-10-15T09:46:15.212Z,17.70
2022-10-15T09:48:46.046Z,17.80
2022-10-15T09:51:18.532Z,17.80
2022-10-15T09:53:50.535Z,17.90
2022-10-15T09:56:22.732Z,18.00
2022-10-15T09:58:54.253Z,18.00
2022-10-15T10:01:21.932Z,18.30
2022-10-15T10:03:53.158Z,18.30
2022-10-15T10:06:20.774Z,18.60
2022-10-15T10:08:52.303Z,18.80
2022-10-15T10:11:19.378Z,19.10
2022-10-15T10:13:50.947Z,19.50
2022-10-15T10:16:18.975Z,19.50
2022-10-15T10:19:00.718Z,19.50
2022-10-15T10:21:31.765Z,19.80
2022-10-15T10:24:18.212Z,19.90
2022-10-15T10:26:45.849Z,19.70
2022-10-15T10:29:32.967Z,19.90
2022-10-15T10:32:09.453Z,20.40
2022-10-15T10:34:36.133Z,20.80
2022-10-15T10:37:03.659Z,21.10
2022-10-15T10:41:57.294Z,22.90
2022-10-15T10:44:30.032Z,24.20
2022-10-15T10:47:02.842Z,24.70
2022-10-15T10:49:37.589Z,25.10
2022-10-15T10:52:04.807Z,25.10
2022-10-15T10:54:31.947Z,24.10
2022-10-15T10:56:59.419Z,23.80
2022-10-15T10:59:28.512Z,23.70
2022-10-15T11:01:56.802Z,23.70
2022-10-15T11:04:23.348Z,23.20
2022-10-15T11:06:51.060Z,22.80
2022-10-15T11:09:23.708Z,22.50
2022-10-15T11:12:05.706Z,22.30
2022-10-15T11:14:38.224Z,22.10
2022-10-15T11:17:15.695Z,22.30
2022-10-15T11:20:12.310Z,21.80
2022-10-15T11:22:47.665Z,21.20
2022-10-15T11:25:14.272Z,21.00
2022-10-15T11:27:50.977Z,20.60
2022-10-15T11:30:17.533Z,20.90
2022-10-15T11:33:06.716Z,20.70
2022-10-15T11:35:59.068Z,20.80
2022-10-15T11:38:25.676Z,21.10
2022-10-15T11:41:12.550Z,21.60
2022-10-15T11:43:42.201Z,22.40
2022-10-15T11:46:08.797Z,23.10
2022-10-15T11:48:54.267Z,24.30
2022-10-15T11:51:24.044Z,25.40
2022-10-15T11:53:54.699Z,26.50
2022-10-15T11:56:23.310Z,27.20
2022-10-15T11:58:52.255Z,27.60
2022-10-15T12:01:21.939Z,28.60
2022-10-15T12:03:54.909Z,29.80
2022-10-15T12:06:22.908Z,30.50
2022-10-15T12:08:50.667Z,29.70
2022-10-15T12:11:41.843Z,28.80
2022-10-15T12:14:21.745Z,27.60
2022-10-15T12:17:03.844Z,26.10
2022-10-15T12:19:41.911Z,24.70
2022-10-15T12:22:11.690Z,23.60
2022-10-15T12:24:38.260Z,23.60
2022-10-15T12:27:20.285Z,24.60
2022-10-15T12:29:48.763Z,25.40
2022-10-15T12:32:22.759Z,25.40
2022-10-15T12:34:54.021Z,25.40
2022-10-15T12:37:22.919Z,24.80
2022-10-15T12:39:55.232Z,24.60
2022-10-15T12:42:23.915Z,24.40
2022-10-15T12:44:50.929Z,23.60
2022-10-15T12:49:46.080Z,23.20
2022-10-15T12:54:46.461Z,23.40
2022-10-15T12:57:38.630Z,23.30
2022-10-15T13:00:24.038Z,23.10
2022-10-15T13:02:50.980Z,23.20
2022-10-15T13:05:33.657Z,23.00
2022-10-15T13:08:01.734Z,23.00
2022-10-15T13:10:36.296Z,22.90
2022-10-15T13:13:04.972Z,22.70
2022-10-15T13:15:32.498Z,22.60
2022-10-15T13:18:00.211Z,22.40
2022-10-15T13:20:33.263Z,22.00
2022-10-15T13:23:28.971Z,21.90
2022-10-15T13:26:13.226Z,21.70
2022-10-15T13:28:44.367Z,22.00
2022-10-15T13:33:40.961Z,22.50
2022-10-15T13:36:08.334Z,22.30
2022-10-15T13:38:37.081Z,22.40
2022-10-15T13:41:03.721Z,22.20
2022-10-15T13:43:30.356Z,22.10
2022-10-15T13:45:58.089Z,22.30
2022-10-15T13:48:26.566Z,21.10
2022-10-15T13:50:54.767Z,22.10
2022-10-15T13:53:21.323Z,22.10
2022-10-15T13:55:52.340Z,22.20
2022-10-15T13:58:39.172Z,22.20
2022-10-15T14:01:14.763Z,22.50
2022-10-15T14:03:54.455Z,21.80
2022-10-15T14:06:25.005Z,21.40
2022-10-15T14:08:52.799Z,21.50
2022-10-15T14:11:19.440Z,21.10
2022-10-15T14:13:49.148Z,21.00
2022-10-15T14:16:20.712Z,20.90
2022-10-15T14:18:58.564Z,21.00
2022-10-15T14:21:32.624Z,20.80
2022-10-15T14:24:03.936Z,20.80
2022-10-15T14:26:31.412Z,20.80
2022-10-15T14:28:58.126Z,20.60
2022-10-15T14:31:29.728Z,20.50
2022-10-15T14:33:56.401Z,20.40
2022-10-15T14:36:23.072Z,20.50
2022-10-15T14:38:51.924Z,20.40
2022-10-15T14:41:21.356Z,20.40
2022-10-15T14:43:59.491Z,20.90
2022-10-15T14:46:26.857Z,20.60
2022-10-15T14:48:53.464Z,20.70
2022-10-15T14:51:24.753Z,20.80
2022-10-15T14:53:52.740Z,20.70
2022-10-15T14:56:20.498Z,20.60
2022-10-15T14:58:52.204Z,20.50
2022-10-15T15:01:19.823Z,20.60
2022-10-15T15:03:48.218Z,20.70
2022-10-15T15:06:14.834Z,20.60
2022-10-15T15:08:41.516Z,20.50
2022-10-15T15:11:10.748Z,20.50
2022-10-15T15:13:39.208Z,20.30
2022-10-15T15:16:06.205Z,20.20
2022-10-15T15:18:33.223Z,20.10
2022-10-15T15:21:04.678Z,19.90
2022-10-15T15:23:31.742Z,19.90
2022-10-15T15:25:58.333Z,19.70
2022-10-15T15:28:26.709Z,19.60
2022-10-15T15:31:00.794Z,19.50
2022-10-15T15:33:28.333Z,19.60
2022-10-15T15:36:05.137Z,19.60
2022-10-15T15:38:31.888Z,19.60
2022-10-15T15:41:12.037Z,19.70
2022-10-15T15:43:38.953Z,19.60
2022-10-15T15:46:06.020Z,20.00
2022-10-15T15:48:32.596Z,19.50
2022-10-15T15:51:03.992Z,19.40
2022-10-15T15:53:30.582Z,19.40
2022-10-15T15:55:57.339Z,19.30
2022-10-15T15:58:24.095Z,19.10
2022-10-15T16:00:50.680Z,19.20
2022-10-15T16:03:17.292Z,19.10
2022-10-15T16:05:43.978Z,19.00
2022-10-15T16:08:11.455Z,18.90
2022-10-15T16:10:38.092Z,18.80
2022-10-15T16:13:04.837Z,18.70
2022-10-15T16:15:31.415Z,18.70
2022-10-15T16:17:58.048Z,18.70
2022-10-15T16:20:24.617Z,18.60
2022-10-15T16:22:51.732Z,18.40
2022-10-15T16:25:18.778Z,18.50
2022-10-15T16:27:48.645Z,18.50
2022-10-15T16:30:15.494Z,18.50
2022-10-15T16:32:42.064Z,18.40
2022-10-15T16:35:08.991Z,18.20
2022-10-15T16:37:35.560Z,18.20
2022-10-15T16:40:02.251Z,18.50
2022-10-15T16:42:28.851Z,18.00
2022-10-15T16:44:55.430Z,18.00
2022-10-15T16:47:22.093Z,17.90
2022-10-15T16:49:48.917Z,17.70
2022-10-15T16:52:16.162Z,17.50
2022-10-15T16:54:42.728Z,17.60
2022-10-15T16:57:09.294Z,17.40
2022-10-15T16:59:35.863Z,17.20
2022-10-15T17:02:02.562Z,17.10
2022-10-15T17:04:29.339Z,17.00
2022-10-15T17:06:56.056Z,17.00
2022-10-15T17:09:23.736Z,17.00
2022-10-15T17:11:50.554Z,16.90
2022-10-15T17:14:17.794Z,16.90
2022-10-15T17:16:45.713Z,16.90
2022-10-15T17:19:13.436Z,16.90
2022-10-15T17:21:42.464Z,17.50
2022-10-15T17:24:11.439Z,16.90
2022-10-15T17:26:40.306Z,16.90
2022-10-15T17:29:11.675Z,17.50
2022-10-15T17:31:38.572Z,16.90
2022-10-15T17:34:06.425Z,16.90
2022-10-15T17:36:36.569Z,16.90
2022-10-15T17:39:03.683Z,16.90
2022-10-15T17:41:30.650Z,16.90
2022-10-15T17:43:57.790Z,17.00
2022-10-15T17:46:26.161Z,16.80
2022-10-15T17:48:53.266Z,17.00
2022-10-15T17:51:21.526Z,16.80
2022-10-15T17:53:50.747Z,16.70
2022-10-15T17:56:18.501Z,16.80
2022-10-15T17:58:45.322Z,16.70
2022-10-15T18:01:13.059Z,16.60
2022-10-15T18:03:39.667Z,16.60
2022-10-15T18:06:10.200Z,16.30
2022-10-15T18:08:36.871Z,16.60
2022-10-15T18:11:03.545Z,16.50
2022-10-15T18:13:30.134Z,16.40
2022-10-15T18:15:59.855Z,16.40
2022-10-15T18:18:26.995Z,16.40
2022-10-15T18:20:53.831Z,16.30
2022-10-15T18:23:20.700Z,16.30
2022-10-15T18:25:47.428Z,16.40
2022-10-15T18:28:14.057Z,16.30
2022-10-15T18:30:42.049Z,16.30
2022-10-15T18:33:10.153Z,16.40
2022-10-15T18:35:37.655Z,16.40
2022-10-15T18:38:04.290Z,16.40
2022-10-15T18:40:38.699Z,16.40
2022-10-15T18:43:07.618Z,16.40
2022-10-15T18:45:35.837Z,16.30
2022-10-15T18:48:02.771Z,16.60
2022-10-15T18:50:29.437Z,16.60
2022-10-15T18:52:56.004Z,16.40
2022-10-15T18:55:22.648Z,16.50
2022-10-15T18:57:49.323Z,16.50
2022-10-15T19:00:16.136Z,17.00
2022-10-15T19:02:42.729Z,16.50
2022-10-15T19:05:09.427Z,16.60
2022-10-15T19:07:35.984Z,16.60
2022-10-15T19:10:02.698Z,16.50
2022-10-15T19:12:29.335Z,16.50
2022-10-15T19:14:55.980Z,16.60
2022-10-15T19:17:22.639Z,16.40
2022-10-15T19:19:50.876Z,16.40
2022-10-15T19:22:17.668Z,16.40
2022-10-15T19:24:44.271Z,16.40
2022-10-15T19:27:11.461Z,16.40
2022-10-15T19:29:39.100Z,16.40
2022-10-15T19:32:05.947Z,16.40
2022-10-15T19:34:34.563Z,16.60
2022-10-15T19:37:01.382Z,16.30
2022-10-15T19:39:28.622Z,16.40
2022-10-15T19:41:55.287Z,16.20
2022-10-15T19:44:25.731Z,16.40
2022-10-15T19:46:53.220Z,16.30
2022-10-15T19:49:19.841Z,16.20
2022-10-15T19:51:47.052Z,16.20
2022-10-15T19:54:13.811Z,17.30
2022-10-15T19:56:40.499Z,16.20
2022-10-15T19:59:07.378Z,16.00
2022-10-15T20:01:34.330Z,16.20
2022-10-15T20:04:04.903Z,16.10
2022-10-15T20:06:33.586Z,16.80
2022-10-15T20:09:00.452Z,16.10
2022-10-15T20:11:27.028Z,16.10
2022-10-15T20:13:53.835Z,16.70
2022-10-15T20:16:23.036Z,17.50
2022-10-15T20:18:50.452Z,16.20
2022-10-15T20:21:17.124Z,16.10
2022-10-15T20:23:44.462Z,16.10
2022-10-15T20:26:12.291Z,16.00
2022-10-15T20:28:39.667Z,16.10
2022-10-15T20:31:07.301Z,15.90
2022-10-15T20:33:34.023Z,15.80
2022-10-15T20:36:04.382Z,15.80
2022-10-15T20:38:31.269Z,15.60
2022-10-15T20:40:57.860Z,16.20
2022-10-15T20:43:24.607Z,15.50
2022-10-15T20:45:51.530Z,15.30
2022-10-15T20:48:20.040Z,16.10
2022-10-15T20:50:47.556Z,15.20
2022-10-15T20:53:14.229Z,16.10
2022-10-15T20:55:40.911Z,15.20
2022-10-15T20:58:07.737Z,15.00
2022-10-15T21:00:34.519Z,14.90
2022-10-15T21:03:01.163Z,14.40
2022-10-15T21:05:27.756Z,15.70
2022-10-15T21:07:56.856Z,14.80
2022-10-15T21:10:23.424Z,14.80
2022-10-15T21:12:49.996Z,15.10
2022-10-15T21:15:16.723Z,14.70
2022-10-15T21:17:43.475Z,14.70
2022-10-15T21:20:10.197Z,14.70
2022-10-15T21:22:36.754Z,14.70
2022-10-15T21:25:03.470Z,14.60
2022-10-15T21:27:30.049Z,14.60
2022-10-15T21:29:56.633Z,14.60
2022-10-15T21:32:23.354Z,15.30
2022-10-15T21:34:49.963Z,15.20
2022-10-15T21:37:16.657Z,14.40
2022-10-15T21:39:43.211Z,14.30
2022-10-15T21:42:09.836Z,13.90
2022-10-15T21:44:36.415Z,14.40
2022-10-15T21:47:05.130Z,14.40
2022-10-15T21:49:31.726Z,14.40
2022-10-15T21:51:58.293Z,14.30
2022-10-15T21:54:24.918Z,14.50
2022-10-15T21:56:51.489Z,14.30
2022-10-15T21:59:18.043Z,15.40
2022-10-15T22:01:45.680Z,14.00
2022-10-15T22:04:12.289Z,13.90
2022-10-15T22:06:40.089Z,14.00
2022-10-15T22:09:07.521Z,13.60
2022-10-15T22:11:35.440Z,15.00
2022-10-15T22:14:03.797Z,13.90
2022-10-15T22:16:30.740Z,13.90
2022-10-15T22:18:57.494Z,14.00
2022-10-15T22:21:25.419Z,13.80
2022-10-15T22:23:59.704Z,13.80
2022-10-15T22:26:27.380Z,13.70
2022-10-15T22:28:54.900Z,14.10
2022-10-15T22:31:21.862Z,13.60
2022-10-15T22:33:48.847Z,13.60
2022-10-15T22:36:15.488Z,13.60
2022-10-15T22:38:42.807Z,14.20
2022-10-15T22:41:12.349Z,13.50
2022-10-15T22:43:39.077Z,13.60
2022-10-15T22:46:06.012Z,13.60
2022-10-15T22:48:36.545Z,13.50
2022-10-15T22:51:04.126Z,13.80
2022-10-15T22:53:30.708Z,13.40
2022-10-15T22:56:04.852Z,13.10
2022-10-15T22:58:32.063Z,13.40
2022-10-15T23:01:11.797Z,13.30
2022-10-15T23:03:39.247Z,13.30
2022-10-15T23:06:06.256Z,13.30
2022-10-15T23:08:33.507Z,13.30
2022-10-15T23:11:10.711Z,13.30
2022-10-15T23:13:38.234Z,13.30
2022-10-15T23:16:13.324Z,13.40
2022-10-15T23:18:40.330Z,13.20
2022-10-15T23:21:10.333Z,13.00
2022-10-15T23:23:36.933Z,13.10
2022-10-15T23:26:03.688Z,13.50
2022-10-15T23:28:30.479Z,12.80
2022-10-15T23:30:57.210Z,13.10
2022-10-15T23:33:24.470Z,13.30
2022-10-15T23:35:58.106Z,12.50
2022-10-15T23:38:24.879Z,13.00
2022-10-15T23:40:52.160Z,13.00
2022-10-15T23:43:18.734Z,13.00
2022-10-15T23:45:45.306Z,12.80
2022-10-15T23:48:11.872Z,12.80
2022-10-15T23:50:39.367Z,13.90
2022-10-15T23:53:06.278Z,13.20
2022-10-15T23:55:37.400Z,13.20
2022-10-15T23:58:03.963Z,12.80
